»·PEaware :: N707CP KMFR-KOTH

N707CP :: KMFR-KOTH

FLIGHT INFORMATION

Flight Status: Arrived
Operator: Privately registered:
United States
More flights under this callsign
Pilot: Chase W. (8260)
Aircraft: PIPER PA-30 TWIN COMANCHE
(PA30)
More flights by this aircraft type
Origin: KMFR Rogue Valley Intl-Medford
United States
Destination: KOTH North Bend Mun
United States
More flights between these airports :: More routes between these airports
Route: OED V287 OTH
File this flight plan on PilotEdge
Remarks:
Altitude:
(Current/Filed)
8,000ft
Speed:
(Current/Filed)
150kts
Departed: 28-Oct-17 04:23 PM
Arrived: 28-Oct-17 05:09 PM
Distance/Time
Traveled:
87nm/0:46
Distance/Time
To Go:
Arrived

Flight Plot

Page will automatically refresh every two minutes.

Flight plan parsing failed; only flown route is shown


Map Options




Map Legend


Flown Route
Filed Route
Departure Airport
Arrival Airport
Navaid (VOR, NDB)
Fix

Horizontal Profiles

Position Reports

Time Latitude Longitude Heading Altitude Ground
Speed
28-Oct-17 16:12 42.375377 -122.877703 294 1336ft 0kts
28-Oct-17 16:13 42.375377 -122.877703 294 1336ft 0kts
28-Oct-17 16:14 42.375377 -122.877703 294 1336ft 0kts
28-Oct-17 16:15 42.375377 -122.877703 294 1336ft 0kts
28-Oct-17 16:16 42.375377 -122.877703 294 1336ft 0kts
28-Oct-17 16:17 42.375377 -122.877703 294 1336ft 0kts
28-Oct-17 16:18 42.375377 -122.877703 294 1336ft 0kts
28-Oct-17 16:19 42.375377 -122.877703 294 1336ft 0kts
28-Oct-17 16:20 42.375377 -122.877703 294 1336ft 0kts
28-Oct-17 16:21 42.375377 -122.877703 294 1336ft 0kts
28-Oct-17 16:22 42.375377 -122.877703 294 1336ft 0kts
28-Oct-17 16:23 42.376071 -122.878016 78 1335ft 7kts
28-Oct-17 16:24 42.376474 -122.875822 108 1336ft 13kts
28-Oct-17 16:25 42.371448 -122.873007 157 1336ft 26kts
28-Oct-17 16:26 42.364270 -122.869293 154 1336ft 25kts
28-Oct-17 16:27 42.363680 -122.868049 69 1335ft 13kts
28-Oct-17 16:28 42.382386 -122.877399 339 1986ft 102kts
28-Oct-17 16:29 42.408444 -122.892306 337 3543ft 99kts
28-Oct-17 16:30 42.433819 -122.905086 350 4957ft 98kts
28-Oct-17 16:31 42.460032 -122.910488 354 6288ft 99kts
28-Oct-17 16:32 42.487233 -122.917430 350 7507ft 99kts
28-Oct-17 16:33 42.484148 -122.901388 203 8053ft 137kts
28-Oct-17 16:34 42.492580 -122.942837 329 7947ft 162kts
28-Oct-17 16:35 42.528549 -122.978358 316 7977ft 162kts
28-Oct-17 16:36 42.557738 -123.016525 315 7969ft 154kts
28-Oct-17 16:37 42.587548 -123.055844 315 7972ft 153kts
28-Oct-17 16:38 42.610670 -123.086476 315 7973ft 152kts
28-Oct-17 16:39 42.640423 -123.126002 315 7973ft 150kts
28-Oct-17 16:40 42.669453 -123.163458 316 7992ft 149kts
28-Oct-17 16:41 42.697504 -123.200205 316 7972ft 149kts
28-Oct-17 16:42 42.725738 -123.237561 315 7973ft 150kts
28-Oct-17 16:43 42.754639 -123.275924 315 7973ft 149kts
28-Oct-17 16:44 42.783060 -123.313717 315 7973ft 149kts
28-Oct-17 16:45 42.811777 -123.351957 315 7973ft 149kts
28-Oct-17 16:46 42.840114 -123.389744 315 7973ft 149kts
28-Oct-17 16:47 42.868577 -123.427752 315 7973ft 149kts
28-Oct-17 16:48 42.897540 -123.466479 315 7973ft 149kts
28-Oct-17 16:49 42.927002 -123.505920 315 7973ft 149kts
28-Oct-17 16:50 42.956484 -123.545461 315 7973ft 149kts
28-Oct-17 16:51 42.985999 -123.585096 315 7973ft 149kts
28-Oct-17 16:52 43.015482 -123.624743 315 7973ft 149kts
28-Oct-17 16:53 43.044742 -123.664146 315 7973ft 149kts
28-Oct-17 16:54 43.076039 -123.706250 315 7444ft 166kts
28-Oct-17 16:55 43.108548 -123.750131 315 6869ft 170kts
28-Oct-17 16:56 43.143522 -123.797155 318 5949ft 180kts
28-Oct-17 16:57 43.175688 -123.841016 315 5954ft 157kts
28-Oct-17 16:58 43.205526 -123.881613 315 5953ft 154kts
28-Oct-17 16:59 43.235907 -123.922962 315 5968ft 155kts
28-Oct-17 17:00 43.266306 -123.964450 313 5953ft 154kts
28-Oct-17 17:01 43.273082 -124.020466 269 5954ft 153kts
28-Oct-17 17:02 43.273121 -124.085213 271 4771ft 190kts
28-Oct-17 17:03 43.271418 -124.154292 265 3879ft 178kts
28-Oct-17 17:04 43.270129 -124.216354 268 3757ft 166kts
28-Oct-17 17:05 43.270719 -124.280593 272 3227ft 169kts
28-Oct-17 17:06 43.272126 -124.346423 271 2413ft 165kts
28-Oct-17 17:07 43.284208 -124.392228 311 1885ft 136kts
28-Oct-17 17:08 43.320672 -124.415908 358 1880ft 157kts
28-Oct-17 17:09 43.357020 -124.396670 44 1518ft 123kts
28-Oct-17 17:10 43.373573 -124.361007 61 1338ft 95kts
28-Oct-17 17:11 43.386327 -124.329577 61 1096ft 97kts
28-Oct-17 17:12 43.399247 -124.298442 61 727ft 94kts
28-Oct-17 17:13 43.411724 -124.267616 59 205ft 87kts
28-Oct-17 17:14 43.419523 -124.248843 59 20ft 33kts
28-Oct-17 17:15 43.418580 -124.246705 151 20ft 13kts
28-Oct-17 17:16 43.417653 -124.247012 232 20ft 0kts
28-Oct-17 17:17 43.417653 -124.247012 232 20ft 0kts

Navigation Log

Ident Type
Flight plan parsing failed, navigation log unavailable